Time;durP1;ratioP1;P1;durP2;ratioP2;P2;SDS_P1;SDS_P2;PMS_P1;PMS_P2;Temp;Humidity;BMP_temperature;BMP_pressure;BME280_temperature;BME280_humidity;BME280_pressure;Samples;Min_cycle;Max_cycle;Signal;HPM_P1;HPM_P2
2021/09/07 00:00:29;;;;;;;0.43;0.30;;;19.30;49.50;;;;;;5091829;28;20241;-45
2021/09/07 00:03:00;;;;;;;2.13;0.40;;;19.30;49.40;;;;;;5093572;28;20279;-55
2021/09/07 00:05:30;;;;;;;0.85;0.30;;;19.30;49.40;;;;;;5072980;28;20242;-48
2021/09/07 00:08:03;;;;;;;0.40;0.40;;;19.40;49.30;;;;;;5073105;28;20333;-49
2021/09/07 00:10:33;;;;;;;0.65;0.40;;;19.40;49.20;;;;;;5072084;28;20246;-47
2021/09/07 00:13:03;;;;;;;0.50;0.47;;;19.40;49.20;;;;;;5072933;28;20284;-49
2021/09/07 00:15:34;;;;;;;1.23;0.40;;;19.40;49.10;;;;;;5072520;28;20255;-52
2021/09/07 00:18:04;;;;;;;0.73;0.32;;;19.50;49.20;;;;;;5072731;28;20195;-54
2021/09/07 00:20:35;;;;;;;1.65;0.50;;;19.50;49.00;;;;;;5072685;28;20254;-53
2021/09/07 00:23:07;;;;;;;0.60;0.40;;;19.50;49.00;;;;;;5073354;28;20352;-54
2021/09/07 00:25:37;;;;;;;0.35;0.35;;;19.50;49.00;;;;;;5072899;28;20675;-49
2021/09/07 00:28:08;;;;;;;0.50;0.30;;;19.60;49.00;;;;;;5072569;28;20794;-46
2021/09/07 00:30:38;;;;;;;1.95;0.47;;;19.60;49.00;;;;;;5072129;28;20269;-45
2021/09/07 00:33:10;;;;;;;0.47;0.40;;;19.60;48.90;;;;;;5071161;28;20681;-48
2021/09/07 00:35:40;;;;;;;0.93;0.40;;;19.60;48.90;;;;;;5072571;28;20191;-58
2021/09/07 00:38:12;;;;;;;0.82;0.30;;;19.60;48.90;;;;;;5072361;28;20686;-51
2021/09/07 00:40:43;;;;;;;0.45;0.30;;;19.60;48.80;;;;;;5073180;28;20335;-51
2021/09/07 00:43:13;;;;;;;0.98;0.47;;;19.60;48.80;;;;;;5072325;28;20745;-48
2021/09/07 00:45:44;;;;;;;0.70;0.30;;;19.60;48.80;;;;;;5083481;28;20734;-50
2021/09/07 00:48:14;;;;;;;0.45;0.30;;;19.70;48.80;;;;;;5072500;28;20637;-59
2021/09/07 00:50:44;;;;;;;0.68;0.38;;;19.70;48.60;;;;;;5072940;28;20219;-55
2021/09/07 00:53:17;;;;;;;0.63;0.30;;;19.70;48.60;;;;;;5078275;28;20198;-51
2021/09/07 00:55:48;;;;;;;0.35;0.22;;;19.80;48.30;;;;;;5092069;28;20205;-56
2021/09/07 00:58:18;;;;;;;1.02;0.38;;;19.80;48.20;;;;;;5091849;28;20567;-51
2021/09/07 01:00:49;;;;;;;0.43;0.30;;;19.90;48.30;;;;;;5092616;28;20306;-48
2021/09/07 01:03:19;;;;;;;0.43;0.20;;;19.80;48.40;;;;;;5092688;28;20194;-44
2021/09/07 01:05:50;;;;;;;0.30;0.30;;;19.90;48.70;;;;;;5092451;28;20191;-46
2021/09/07 01:08:22;;;;;;;0.30;0.20;;;19.90;48.50;;;;;;5091800;28;20774;-48
2021/09/07 01:10:52;;;;;;;1.00;0.40;;;19.90;48.40;;;;;;5092817;28;20225;-54
2021/09/07 01:13:23;;;;;;;0.50;0.30;;;19.90;48.50;;;;;;5092484;28;20281;-48
2021/09/07 01:15:54;;;;;;;0.38;0.20;;;20.00;48.50;;;;;;5091779;28;20197;-54
2021/09/07 01:18:24;;;;;;;0.55;0.20;;;20.00;48.30;;;;;;5092505;28;20232;-48
2021/09/07 01:20:55;;;;;;;0.20;0.20;;;20.00;48.40;;;;;;5076469;28;20258;-51
2021/09/07 01:23:27;;;;;;;2.65;0.40;;;20.00;48.30;;;;;;5090874;28;20202;-44
2021/09/07 01:25:59;;;;;;;0.80;0.38;;;20.00;48.30;;;;;;5091958;28;20230;-46
2021/09/07 01:28:31;;;;;;;0.40;0.20;;;20.10;48.30;;;;;;5091004;28;20258;-47
2021/09/07 01:31:02;;;;;;;0.63;0.10;;;20.10;48.30;;;;;;5091345;28;20300;-46
2021/09/07 01:33:32;;;;;;;0.20;0.20;;;20.10;48.30;;;;;;5095139;22;20332;-56
2021/09/07 01:36:03;;;;;;;1.25;0.50;;;20.20;48.30;;;;;;5071310;28;20195;-56
2021/09/07 01:38:33;;;;;;;1.17;0.30;;;20.20;48.10;;;;;;5071899;28;20195;-49
2021/09/07 01:41:06;;;;;;;0.45;0.35;;;20.20;48.10;;;;;;5070229;28;20214;-52
2021/09/07 01:43:36;;;;;;;0.82;0.40;;;20.20;48.20;;;;;;5070996;28;20225;-51
2021/09/07 01:46:07;;;;;;;0.57;0.20;;;20.20;48.20;;;;;;5070510;28;20241;-52
2021/09/07 01:48:37;;;;;;;0.80;0.30;;;20.20;48.20;;;;;;5071265;28;20317;-53
2021/09/07 01:51:07;;;;;;;0.63;0.30;;;20.20;48.10;;;;;;5070554;28;20247;-46
2021/09/07 01:53:38;;;;;;;0.60;0.40;;;20.30;48.00;;;;;;5070882;28;20490;-56
2021/09/07 01:56:10;;;;;;;0.52;0.30;;;20.30;48.00;;;;;;5071217;28;20238;-52
2021/09/07 01:58:41;;;;;;;0.20;0.20;;;20.30;48.00;;;;;;5071486;28;20241;-56
2021/09/07 02:01:11;;;;;;;0.22;0.10;;;20.30;47.80;;;;;;5051177;28;20215;-55
2021/09/07 02:03:42;;;;;;;0.20;0.20;;;20.40;47.90;;;;;;5050774;28;20195;-51
2021/09/07 02:06:12;;;;;;;1.10;0.50;;;20.40;47.80;;;;;;5058396;28;20222;-52
2021/09/07 02:08:43;;;;;;;0.47;0.30;;;20.40;47.70;;;;;;5070195;28;20279;-52
2021/09/07 02:11:15;;;;;;;0.47;0.30;;;20.40;47.80;;;;;;5070688;28;20253;-53
2021/09/07 02:13:45;;;;;;;0.30;0.30;;;20.40;47.80;;;;;;5069361;28;20199;-45
2021/09/07 02:16:16;;;;;;;0.30;0.30;;;20.50;47.70;;;;;;5070023;28;20708;-52
2021/09/07 02:18:46;;;;;;;0.75;0.30;;;20.50;47.60;;;;;;5066562;28;20219;-51
2021/09/07 02:21:17;;;;;;;0.40;0.30;;;20.50;47.60;;;;;;5059335;28;20254;-50
2021/09/07 02:23:47;;;;;;;0.40;0.40;;;20.50;47.60;;;;;;5058048;28;20241;-57
2021/09/07 02:26:19;;;;;;;0.52;0.30;;;20.50;47.50;;;;;;5057471;28;20238;-52
2021/09/07 02:28:53;;;;;;;1.45;0.40;;;20.60;47.50;;;;;;5049761;28;20490;-57
2021/09/07 02:31:24;;;;;;;1.10;0.20;;;20.60;47.40;;;;;;5050184;28;20191;-52
2021/09/07 02:33:54;;;;;;;2.10;0.30;;;20.60;47.40;;;;;;5053170;22;20303;-49
2021/09/07 02:36:26;;;;;;;0.30;0.30;;;20.70;47.40;;;;;;5025285;28;20254;-54
2021/09/07 02:38:57;;;;;;;0.30;0.30;;;20.70;47.40;;;;;;5023922;28;20665;-48
2021/09/07 02:41:29;;;;;;;0.30;0.30;;;20.70;47.40;;;;;;5029791;28;20250;-45
2021/09/07 02:44:00;;;;;;;0.60;0.30;;;20.70;47.40;;;;;;5018846;28;20258;-58
2021/09/07 02:46:31;;;;;;;0.52;0.28;;;20.80;47.40;;;;;;5010721;28;20271;-50
2021/09/07 02:49:01;;;;;;;0.50;0.30;;;20.80;47.40;;;;;;5009848;28;20260;-50
2021/09/07 02:51:31;;;;;;;0.30;0.30;;;20.90;47.10;;;;;;5011443;28;20196;-45
2021/09/07 02:54:02;;;;;;;0.63;0.30;;;20.90;47.10;;;;;;5019475;28;20608;-50
2021/09/07 02:56:34;;;;;;;0.73;0.45;;;20.90;47.10;;;;;;5030336;28;20615;-48
2021/09/07 02:59:05;;;;;;;0.75;0.30;;;20.90;47.00;;;;;;5029066;28;20255;-52
2021/09/07 03:01:35;;;;;;;0.65;0.30;;;21.00;47.10;;;;;;5029896;28;20512;-46
2021/09/07 03:04:05;;;;;;;0.70;0.40;;;20.90;46.90;;;;;;5029774;28;20270;-57
2021/09/07 03:06:36;;;;;;;0.98;0.20;;;21.00;46.80;;;;;;5030231;28;20196;-53
2021/09/07 03:09:06;;;;;;;0.30;0.30;;;21.10;46.80;;;;;;5030685;28;20289;-49
2021/09/07 03:11:39;;;;;;;0.20;0.20;;;21.10;46.80;;;;;;5029668;28;20200;-51
2021/09/07 03:14:09;;;;;;;1.08;0.38;;;21.10;46.70;;;;;;5025432;28;20193;-49
2021/09/07 03:16:39;;;;;;;0.28;0.20;;;21.10;46.80;;;;;;5011019;28;20299;-46
2021/09/07 03:19:10;;;;;;;0.20;0.20;;;21.10;46.80;;;;;;5010685;28;20251;-51
2021/09/07 03:21:41;;;;;;;2.17;0.20;;;21.20;46.70;;;;;;5010734;28;20594;-46
2021/09/07 03:24:11;;;;;;;0.30;0.25;;;21.20;46.70;;;;;;5022118;28;20220;-47
2021/09/07 03:26:44;;;;;;;0.20;0.20;;;21.20;46.90;;;;;;5030935;28;20247;-46
2021/09/07 03:29:14;;;;;;;0.30;0.20;;;21.30;47.00;;;;;;5030616;28;20270;-47
2021/09/07 03:31:44;;;;;;;0.20;0.10;;;21.30;47.00;;;;;;5030358;28;20235;-45
2021/09/07 03:34:15;;;;;;;0.20;0.20;;;21.30;47.00;;;;;;5031211;28;20200;-53
2021/09/07 03:36:45;;;;;;;0.50;0.20;;;21.40;47.10;;;;;;5030908;28;20326;-47
2021/09/07 03:39:16;;;;;;;0.20;0.20;;;21.40;47.00;;;;;;5019627;28;20256;-47
2021/09/07 03:41:48;;;;;;;0.60;0.30;;;21.40;47.00;;;;;;5011006;28;20232;-49
2021/09/07 03:44:18;;;;;;;0.40;0.20;;;21.50;47.00;;;;;;5010795;28;20243;-48
2021/09/07 03:46:49;;;;;;;0.43;0.30;;;21.50;46.90;;;;;;5010981;28;20251;-54
2021/09/07 03:49:19;;;;;;;1.30;0.20;;;21.50;46.60;;;;;;5010550;28;20260;-57
2021/09/07 03:51:50;;;;;;;0.43;0.30;;;21.50;46.40;;;;;;5010406;28;20233;-50
2021/09/07 03:54:20;;;;;;;0.47;0.28;;;21.50;46.20;;;;;;5023547;28;20679;-52
2021/09/07 03:56:53;;;;;;;0.10;0.10;;;21.50;46.10;;;;;;5028405;28;20454;-49
2021/09/07 03:59:23;;;;;;;0.20;0.20;;;21.60;46.20;;;;;;5019800;28;20239;-47
2021/09/07 04:01:53;;;;;;;0.10;0.10;;;21.50;46.30;;;;;;5028490;28;20208;-53
2021/09/07 04:04:25;;;;;;;0.10;0.10;;;21.50;46.30;;;;;;5029270;28;20240;-53
2021/09/07 04:06:56;;;;;;;0.32;0.20;;;21.60;46.40;;;;;;5032712;28;20231;-47
2021/09/07 04:09:27;;;;;;;0.55;0.20;;;21.60;46.60;;;;;;5032466;28;20575;-50
2021/09/07 04:11:59;;;;;;;0.57;0.20;;;21.60;46.60;;;;;;5032670;28;20676;-46
2021/09/07 04:14:30;;;;;;;0.50;0.22;;;21.60;46.80;;;;;;5033427;28;20224;-47
2021/09/07 04:17:01;;;;;;;0.10;0.10;;;21.60;46.80;;;;;;5033231;28;20247;-51
2021/09/07 04:19:32;;;;;;;0.43;0.20;;;21.70;46.60;;;;;;5033403;28;20303;-48
2021/09/07 04:22:02;;;;;;;0.32;0.28;;;21.70;46.80;;;;;;5032338;28;20251;-49
2021/09/07 04:24:33;;;;;;;0.52;0.20;;;21.80;46.80;;;;;;5033245;28;20231;-49
2021/09/07 04:27:05;;;;;;;0.20;0.20;;;21.70;46.70;;;;;;5031996;28;20223;-49
2021/09/07 04:29:36;;;;;;;0.28;0.20;;;21.80;46.50;;;;;;5032410;28;20259;-46
2021/09/07 04:32:06;;;;;;;0.10;0.10;;;21.80;46.30;;;;;;5020062;28;20228;-47
2021/09/07 04:34:37;;;;;;;0.25;0.25;;;21.90;46.30;;;;;;5012842;28;20298;-53
2021/09/07 04:37:08;;;;;;;0.32;0.20;;;21.90;46.30;;;;;;5013190;28;20344;-51
2021/09/07 04:39:38;;;;;;;0.50;0.17;;;21.90;46.30;;;;;;5012135;28;20279;-50
2021/09/07 04:42:10;;;;;;;1.65;0.20;;;21.90;45.70;;;;;;5012389;28;20228;-53
2021/09/07 04:44:41;;;;;;;0.90;0.32;;;21.90;45.00;;;;;;5012011;28;20232;-58
2021/09/07 04:47:11;;;;;;;0.38;0.38;;;21.90;44.70;;;;;;5012563;28;20192;-59
2021/09/07 04:49:42;;;;;;;1.30;0.20;;;21.90;44.70;;;;;;5020046;28;20262;-55
2021/09/07 04:52:12;;;;;;;1.85;0.10;;;21.90;44.60;;;;;;5032636;28;20243;-50
2021/09/07 04:54:43;;;;;;;1.52;0.30;;;21.90;44.60;;;;;;5032506;28;20204;-50
2021/09/07 04:57:15;;;;;;;0.85;0.10;;;22.00;44.70;;;;;;5032200;28;20246;-59
2021/09/07 04:59:45;;;;;;;0.32;0.20;;;22.00;44.70;;;;;;5033254;28;20247;-52
2021/09/07 05:02:16;;;;;;;0.47;0.30;;;22.00;44.80;;;;;;5032467;28;20231;-50
2021/09/07 05:04:46;;;;;;;0.35;0.20;;;22.00;44.70;;;;;;5032299;28;20723;-49
2021/09/07 05:07:17;;;;;;;0.65;0.20;;;22.00;44.60;;;;;;5017822;28;20201;-45
2021/09/07 05:09:47;;;;;;;0.40;0.20;;;22.00;44.60;;;;;;5020594;28;20263;-46
2021/09/07 05:12:19;;;;;;;0.10;0.10;;;22.00;44.40;;;;;;5013441;28;20251;-63
2021/09/07 05:14:50;;;;;;;0.30;0.20;;;22.00;44.30;;;;;;5013196;28;20224;-53
2021/09/07 05:17:20;;;;;;;1.80;0.30;;;22.00;44.40;;;;;;5012529;28;20229;-54
2021/09/07 05:19:51;;;;;;;0.25;0.20;;;22.00;44.60;;;;;;5013099;28;20252;-57
2021/09/07 05:22:21;;;;;;;1.30;0.20;;;22.00;44.70;;;;;;5012871;28;20235;-56
2021/09/07 05:24:51;;;;;;;1.08;0.30;;;22.00;44.80;;;;;;5029209;28;20259;-52
2021/09/07 05:27:24;;;;;;;1.02;0.20;;;22.00;44.70;;;;;;5032006;28;20196;-56
2021/09/07 05:29:54;;;;;;;0.43;0.28;;;22.00;44.90;;;;;;5031946;28;20255;-54
2021/09/07 05:32:25;;;;;;;0.20;0.20;;;22.00;44.90;;;;;;5032191;28;20278;-56
2021/09/07 05:34:55;;;;;;;1.25;0.28;;;22.00;45.00;;;;;;5032749;28;20212;-50
2021/09/07 05:37:26;;;;;;;1.17;0.20;;;21.90;45.10;;;;;;5032449;28;20231;-57
2021/09/07 05:39:56;;;;;;;0.45;0.20;;;22.00;45.10;;;;;;5031917;28;20220;-57
2021/09/07 05:42:29;;;;;;;0.17;0.17;;;21.90;45.30;;;;;;5031893;28;20242;-48
2021/09/07 05:44:59;;;;;;;1.20;0.10;;;21.90;45.20;;;;;;5031791;28;20254;-49
2021/09/07 05:47:30;;;;;;;0.35;0.15;;;21.90;45.30;;;;;;5031811;28;20239;-55
2021/09/07 05:50:00;;;;;;;0.20;0.20;;;21.90;45.40;;;;;;5031760;28;20311;-49
2021/09/07 05:52:30;;;;;;;1.10;0.20;;;21.80;45.30;;;;;;5031584;28;20231;-51
2021/09/07 05:55:01;;;;;;;0.10;0.10;;;21.90;45.40;;;;;;5031263;28;20204;-53
2021/09/07 05:57:33;;;;;;;0.20;0.20;;;21.80;45.50;;;;;;5031537;28;20754;-49
2021/09/07 06:00:04;;;;;;;0.40;0.17;;;21.80;45.50;;;;;;5032217;28;20663;-51
2021/09/07 06:02:34;;;;;;;0.13;0.13;;;21.80;45.50;;;;;;5030173;28;20243;-52
2021/09/07 06:05:05;;;;;;;0.85;0.22;;;21.80;45.60;;;;;;5024219;28;20235;-51
2021/09/07 06:07:35;;;;;;;0.70;0.30;;;21.80;45.70;;;;;;5032055;28;20219;-47
2021/09/07 06:10:06;;;;;;;0.10;0.10;;;21.80;45.80;;;;;;5030438;28;20313;-47
2021/09/07 06:12:38;;;;;;;0.38;0.10;;;21.70;45.80;;;;;;5030603;28;20432;-52
2021/09/07 06:15:09;;;;;;;0.50;0.20;;;21.70;45.80;;;;;;5031212;28;20228;-58
2021/09/07 06:17:40;;;;;;;1.55;0.28;;;21.70;45.80;;;;;;5031358;28;20734;-56
2021/09/07 06:20:11;;;;;;;0.75;0.30;;;21.70;45.80;;;;;;5030580;28;20255;-52
2021/09/07 06:22:41;;;;;;;0.10;0.10;;;21.70;45.80;;;;;;5031353;28;20235;-57
2021/09/07 06:25:12;;;;;;;0.57;0.28;;;21.60;45.70;;;;;;5029899;28;20239;-49
2021/09/07 06:27:45;;;;;;;0.17;0.17;;;21.60;45.80;;;;;;5030319;28;20228;-56
2021/09/07 06:30:15;;;;;;;0.40;0.10;;;21.60;45.80;;;;;;5030302;28;20255;-52
2021/09/07 06:32:46;;;;;;;0.70;0.20;;;21.60;45.80;;;;;;5029252;28;20236;-62
2021/09/07 06:35:16;;;;;;;0.40;0.20;;;21.50;45.80;;;;;;5030867;28;20216;-54
2021/09/07 06:37:48;;;;;;;0.20;0.20;;;21.50;45.80;;;;;;5030260;28;20278;-54
2021/09/07 06:40:18;;;;;;;0.10;0.10;;;21.50;45.90;;;;;;5029911;28;20286;-64
2021/09/07 06:42:51;;;;;;;0.10;0.10;;;21.50;45.90;;;;;;5030295;28;20234;-57
2021/09/07 06:45:21;;;;;;;0.50;0.30;;;21.50;45.80;;;;;;5030687;28;20294;-60
2021/09/07 06:47:52;;;;;;;0.63;0.30;;;21.40;45.70;;;;;;5030200;28;20196;-55
2021/09/07 06:50:22;;;;;;;0.15;0.15;;;21.40;45.80;;;;;;5030999;28;20228;-55
2021/09/07 06:52:53;;;;;;;0.90;0.20;;;21.40;45.80;;;;;;5030625;28;20700;-60
2021/09/07 06:55:23;;;;;;;0.32;0.20;;;21.40;45.80;;;;;;5023396;28;20193;-65
2021/09/07 06:57:56;;;;;;;0.20;0.20;;;21.40;45.90;;;;;;5011502;28;20232;-57
2021/09/07 07:00:26;;;;;;;0.25;0.20;;;21.30;45.80;;;;;;5010227;28;20235;-57
2021/09/07 07:02:57;;;;;;;0.30;0.20;;;21.30;45.90;;;;;;5010895;28;20254;-55
2021/09/07 07:05:28;;;;;;;0.20;0.10;;;21.30;46.00;;;;;;5010939;28;20248;-52
2021/09/07 07:07:59;;;;;;;0.10;0.10;;;21.30;46.10;;;;;;5011018;28;20201;-59
2021/09/07 07:10:29;;;;;;;0.40;0.20;;;21.20;46.10;;;;;;5010835;28;20275;-53
2021/09/07 07:13:02;;;;;;;0.20;0.20;;;21.20;46.10;;;;;;5010911;28;20240;-64
2021/09/07 07:15:32;;;;;;;0.63;0.17;;;21.20;46.80;;;;;;5011234;28;20228;-61
2021/09/07 07:18:03;;;;;;;0.55;0.40;;;21.20;46.20;;;;;;5011140;28;20233;-53
2021/09/07 07:20:33;;;;;;;0.38;0.28;;;21.20;46.20;;;;;;5011273;28;20220;-57
2021/09/07 07:23:03;;;;;;;0.32;0.32;;;21.20;46.30;;;;;;5012610;28;20205;-50
2021/09/07 07:25:34;;;;;;;0.30;0.30;;;21.10;46.20;;;;;;5030104;28;20243;-49
2021/09/07 07:28:06;;;;;;;0.40;0.30;;;21.10;46.30;;;;;;5030786;28;20236;-49
2021/09/07 07:30:37;;;;;;;0.93;0.40;;;21.10;46.30;;;;;;5030316;28;20259;-61
2021/09/07 07:33:09;;;;;;;0.52;0.40;;;21.10;46.30;;;;;;5030894;28;20228;-58
2021/09/07 07:35:39;;;;;;;0.30;0.30;;;21.10;46.40;;;;;;5030131;28;20566;-61
2021/09/07 07:38:10;;;;;;;0.45;0.35;;;21.00;46.40;;;;;;5030391;28;20576;-57
2021/09/07 07:40:40;;;;;;;0.68;0.40;;;21.00;46.40;;;;;;5033457;28;20274;-54
2021/09/07 07:43:13;;;;;;;0.40;0.40;;;21.00;46.50;;;;;;5034405;28;20227;-59
2021/09/07 07:45:43;;;;;;;0.47;0.40;;;21.00;46.50;;;;;;5034449;28;20203;-56
2021/09/07 07:48:13;;;;;;;0.40;0.40;;;21.00;46.50;;;;;;5034454;28;20605;-57
2021/09/07 07:50:44;;;;;;;0.40;0.40;;;20.90;46.40;;;;;;5033726;28;20704;-50
2021/09/07 07:53:14;;;;;;;0.95;0.60;;;21.00;46.50;;;;;;5033670;28;20571;-57
2021/09/07 07:55:45;;;;;;;0.43;0.40;;;20.90;46.50;;;;;;5034111;28;20291;-54
2021/09/07 07:58:17;;;;;;;0.63;0.40;;;20.90;46.60;;;;;;5034388;28;20200;-50
2021/09/07 08:00:48;;;;;;;1.20;0.65;;;20.90;46.60;;;;;;5033810;28;20723;-53
2021/09/07 08:03:18;;;;;;;0.38;0.38;;;20.90;46.60;;;;;;5033934;28;20196;-55
2021/09/07 08:05:49;;;;;;;0.50;0.50;;;20.80;46.50;;;;;;5021296;28;20228;-53
2021/09/07 08:08:19;;;;;;;0.50;0.50;;;20.80;46.60;;;;;;5014088;28;20224;-62
2021/09/07 08:10:50;;;;;;;1.05;0.50;;;20.80;46.60;;;;;;5013497;28;20264;-63
2021/09/07 08:13:22;;;;;;;1.15;0.50;;;20.80;46.60;;;;;;5014195;28;20200;-55
2021/09/07 08:15:53;;;;;;;0.38;0.38;;;20.80;46.70;;;;;;5014239;28;20232;-59
2021/09/07 08:18:23;;;;;;;0.50;0.43;;;20.70;46.60;;;;;;5013886;28;20243;-59
2021/09/07 08:20:54;;;;;;;0.47;0.47;;;20.70;46.60;;;;;;5013118;28;20252;-60
2021/09/07 08:23:24;;;;;;;1.27;0.40;;;20.70;46.70;;;;;;5017913;28;20236;-53
2021/09/07 08:25:55;;;;;;;0.30;0.30;;;20.70;46.70;;;;;;5033509;28;20574;-53
2021/09/07 08:28:27;;;;;;;1.60;0.60;;;20.60;46.60;;;;;;5033679;28;20234;-57
2021/09/07 08:30:58;;;;;;;1.15;0.43;;;20.60;46.60;;;;;;5033418;28;20262;-63
2021/09/07 08:33:28;;;;;;;0.40;0.32;;;20.60;46.60;;;;;;5033408;28;20286;-60
2021/09/07 08:35:58;;;;;;;1.17;0.60;;;20.60;46.60;;;;;;5032951;28;20200;-57
2021/09/07 08:38:29;;;;;;;0.88;0.50;;;20.60;46.60;;;;;;5033044;28;20228;-64
2021/09/07 08:41:00;;;;;;;0.85;0.43;;;20.60;46.60;;;;;;5033374;28;20220;-60
2021/09/07 08:43:32;;;;;;;0.40;0.40;;;20.50;46.50;;;;;;5033325;28;20196;-54
2021/09/07 08:46:03;;;;;;;0.68;0.43;;;20.50;46.50;;;;;;5033243;28;20251;-61
2021/09/07 08:48:33;;;;;;;2.38;0.40;;;20.50;46.40;;;;;;5032955;28;20232;-54
2021/09/07 08:51:04;;;;;;;2.15;0.63;;;20.50;46.40;;;;;;5031671;28;20228;-49
2021/09/07 08:53:34;;;;;;;1.42;0.63;;;20.50;46.50;;;;;;5030803;28;20257;-52
2021/09/07 08:56:07;;;;;;;0.90;0.50;;;20.40;46.60;;;;;;5032574;28;20239;-55
2021/09/07 08:58:39;;;;;;;0.85;0.60;;;20.40;46.60;;;;;;5032699;28;20286;-61
2021/09/07 09:01:16;;;;;;;0.80;0.47;;;20.40;46.60;;;;;;5033216;28;20735;-48
2021/09/07 09:03:47;;;;;;;0.80;0.60;;;20.40;46.60;;;;;;5033105;28;20196;-55
2021/09/07 09:06:26;;;;;;;0.88;0.50;;;20.40;46.50;;;;;;5032907;28;20234;-52
2021/09/07 09:09:07;;;;;;;1.30;0.70;;;20.30;46.40;;;;;;5032642;28;20618;-44
2021/09/07 09:11:53;;;;;;;0.90;0.60;;;20.30;46.40;;;;;;5032840;28;20232;-47
2021/09/07 09:14:39;;;;;;;0.52;0.50;;;20.30;46.40;;;;;;5033047;28;20192;-47
2021/09/07 09:17:28;;;;;;;0.45;0.40;;;20.30;46.40;;;;;;5032992;28;20612;-49
2021/09/07 09:20:00;;;;;;;0.98;0.60;;;20.20;46.40;;;;;;5032758;28;20220;-57
2021/09/07 09:22:47;;;;;;;3.35;0.88;;;20.20;46.40;;;;;;5032876;28;20227;-49
2021/09/07 09:25:33;;;;;;;6.88;1.10;;;20.20;46.40;;;;;;5012949;28;20193;-47
2021/09/07 09:28:23;;;;;;;2.78;0.90;;;20.20;46.30;;;;;;5012949;28;20232;-45
2021/09/07 09:30:56;;;;;;;3.95;0.73;;;20.20;46.30;;;;;;5012438;28;20228;-47
2021/09/07 09:33:27;;;;;;;3.70;0.90;;;20.20;46.30;;;;;;5012556;28;20239;-48
2021/09/07 09:35:58;;;;;;;5.75;0.85;;;20.10;46.30;;;;;;5012554;28;20274;-45
2021/09/07 09:38:29;;;;;;;4.15;0.75;;;20.10;46.30;;;;;;5012475;28;20197;-44
2021/09/07 09:41:03;;;;;;;4.03;0.85;;;20.10;46.40;;;;;;5011563;28;20267;-45
2021/09/07 09:43:38;;;;;;;3.65;0.88;;;20.10;46.30;;;;;;5012386;28;20283;-45
2021/09/07 09:46:25;;;;;;;2.88;0.73;;;20.10;46.30;;;;;;5012243;28;20201;-52
2021/09/07 09:48:56;;;;;;;3.53;0.88;;;20.00;46.20;;;;;;5012067;28;20196;-57
2021/09/07 09:51:27;;;;;;;2.42;0.65;;;20.00;46.20;;;;;;5011824;28;20566;-46
2021/09/07 09:53:57;;;;;;;1.67;0.90;;;20.00;46.20;;;;;;5020736;28;20236;-54
2021/09/07 09:56:27;;;;;;;4.28;0.88;;;19.90;46.10;;;;;;5031529;28;20236;-50
2021/09/07 09:58:58;;;;;;;3.95;1.45;;;19.90;46.70;;;;;;5031386;28;20231;-61
2021/09/07 10:01:30;;;;;;;3.90;1.08;;;19.90;46.10;;;;;;5031528;28;20238;-47
2021/09/07 10:04:01;;;;;;;3.75;1.30;;;19.90;46.00;;;;;;5028791;28;20228;-45
2021/09/07 10:06:31;;;;;;;3.30;1.20;;;19.90;46.00;;;;;;5010143;28;20205;-50
2021/09/07 10:09:02;;;;;;;5.40;1.40;;;19.80;45.90;;;;;;5011335;28;20236;-54
2021/09/07 10:11:32;;;;;;;4.57;1.45;;;19.80;45.70;;;;;;5011564;28;20311;-48
2021/09/07 10:14:04;;;;;;;5.05;1.70;;;19.80;45.70;;;;;;5010787;28;20255;-48
2021/09/07 10:16:40;;;;;;;6.10;1.70;;;19.80;45.60;;;;;;5011625;28;20204;-50
2021/09/07 10:19:13;;;;;;;4.78;1.50;;;19.70;45.50;;;;;;5011208;28;20258;-47
2021/09/07 10:24:53;;;;;;;3.15;1.23;;;19.70;45.40;;;;;;5024753;28;20203;-47
2021/09/07 10:27:24;;;;;;;4.63;1.23;;;19.60;45.30;;;;;;5031595;28;20791;-47
2021/09/07 10:29:55;;;;;;;4.13;1.50;;;19.60;45.30;;;;;;5030194;28;20315;-46
2021/09/07 10:32:34;;;;;;;4.97;1.40;;;19.60;45.30;;;;;;5030460;28;20246;-45
2021/09/07 10:35:15;;;;;;;4.65;1.55;;;19.60;45.30;;;;;;5070605;22;20234;-48
2021/09/07 10:38:10;;;;;;;5.53;1.52;;;19.50;45.30;;;;;;5070567;28;20666;-54
2021/09/07 10:40:45;;;;;;;1.92;1.05;;;19.50;45.30;;;;;;5070469;28;20218;-49
2021/09/07 10:43:15;;;;;;;3.33;1.13;;;19.50;45.30;;;;;;5070945;28;20286;-49
2021/09/07 10:45:46;;;;;;;4.20;1.35;;;19.50;45.30;;;;;;5070437;28;20285;-52
2021/09/07 10:48:41;;;;;;;3.38;1.33;;;19.40;45.30;;;;;;5071094;28;20244;-53
2021/09/07 10:51:11;;;;;;;4.10;1.30;;;19.40;45.30;;;;;;5055889;28;20230;-53
2021/09/07 10:53:42;;;;;;;4.20;1.75;;;19.40;45.30;;;;;;5070274;28;20260;-53
2021/09/07 10:56:29;;;;;;;3.22;1.27;;;19.40;45.40;;;;;;5070718;28;20246;-49
2021/09/07 10:58:59;;;;;;;3.97;1.50;;;19.30;45.40;;;;;;5069744;28;20252;-55
2021/09/07 11:01:33;;;;;;;4.13;1.30;;;19.30;45.50;;;;;;5071141;28;20666;-54
2021/09/07 11:04:35;;;;;;;3.20;1.10;;;19.30;45.60;;;;;;5068428;28;20276;-55
2021/09/07 11:07:33;;;;;;;2.00;0.90;;;19.30;45.60;;;;;;5069960;28;20236;-54
2021/09/07 11:10:03;;;;;;;3.75;1.20;;;19.20;45.60;;;;;;5070118;28;20302;-53
2021/09/07 11:12:34;;;;;;;4.50;1.33;;;19.20;45.60;;;;;;5070234;28;20264;-54
2021/09/07 11:15:08;;;;;;;3.80;1.40;;;19.20;45.70;;;;;;5072470;28;20230;-53
2021/09/07 11:17:50;;;;;;;2.25;1.10;;;19.20;45.70;;;;;;5074612;28;20280;-53
2021/09/07 11:20:22;;;;;;;2.22;1.30;;;19.20;45.80;;;;;;5074076;28;20233;-54
2021/09/07 11:22:52;;;;;;;5.07;1.35;;;19.10;45.80;;;;;;5074320;28;20237;-55
2021/09/07 11:25:24;;;;;;;2.85;1.50;;;19.10;45.80;;;;;;5053615;28;20249;-54
2021/09/07 11:27:58;;;;;;;3.15;1.27;;;19.10;45.80;;;;;;5053798;28;20242;-53
2021/09/07 11:30:30;;;;;;;2.33;1.20;;;19.10;45.80;;;;;;5053490;28;20628;-55
2021/09/07 11:33:03;;;;;;;1.75;1.00;;;19.00;45.90;;;;;;5054271;28;20238;-55
2021/09/07 11:35:36;;;;;;;2.65;1.20;;;19.00;45.90;;;;;;5082522;22;20276;-48
2021/09/07 11:38:07;;;;;;;2.50;1.00;;;19.00;46.00;;;;;;5073144;28;20235;-60
2021/09/07 11:40:38;;;;;;;2.10;1.08;;;19.00;46.00;;;;;;5074112;28;20254;-49
2021/09/07 11:43:08;;;;;;;5.05;1.45;;;19.00;46.00;;;;;;5073885;28;20264;-47
2021/09/07 11:45:39;;;;;;;3.47;1.35;;;18.90;46.00;;;;;;5073474;28;20238;-59
2021/09/07 11:48:09;;;;;;;2.38;1.10;;;18.90;46.10;;;;;;5074178;28;20230;-62
2021/09/07 11:50:42;;;;;;;2.35;1.35;;;18.90;46.10;;;;;;5073403;28;20258;-57
2021/09/07 11:53:15;;;;;;;4.20;1.30;;;18.80;46.10;;;;;;5073370;28;20747;-58
2021/09/07 11:55:52;;;;;;;2.30;1.10;;;18.80;46.10;;;;;;5073536;28;20229;-55
2021/09/07 11:58:33;;;;;;;5.00;1.23;;;18.90;46.10;;;;;;5073537;28;20674;-59
2021/09/07 12:01:17;;;;;;;3.30;1.30;;;18.80;46.10;;;;;;5074131;28;20261;-54
2021/09/07 12:03:49;;;;;;;1.80;1.10;;;18.80;46.20;;;;;;5074222;28;20205;-60
2021/09/07 12:06:24;;;;;;;1.73;1.10;;;18.80;46.20;;;;;;5073922;28;20195;-59
2021/09/07 12:08:54;;;;;;;1.73;0.90;;;18.80;46.20;;;;;;5072873;28;20233;-57
2021/09/07 12:11:31;;;;;;;1.48;1.02;;;18.70;46.20;;;;;;5073509;28;20258;-52
2021/09/07 12:14:06;;;;;;;2.65;1.20;;;18.70;46.20;;;;;;5073693;28;20674;-60
2021/09/07 12:16:40;;;;;;;3.13;1.20;;;18.70;46.50;;;;;;5073552;28;20194;-61
2021/09/07 12:19:33;;;;;;;2.03;0.98;;;18.70;46.30;;;;;;5073685;28;20289;-56
2021/09/07 12:22:13;;;;;;;1.73;0.90;;;18.60;46.30;;;;;;5073922;28;20294;-61
2021/09/07 12:24:44;;;;;;;1.83;1.02;;;18.60;46.30;;;;;;5073694;28;20257;-56
2021/09/07 12:27:24;;;;;;;1.33;0.75;;;18.60;46.30;;;;;;5072095;28;20257;-55
2021/09/07 12:30:16;;;;;;;2.45;1.20;;;18.60;46.40;;;;;;5073272;28;20632;-57
2021/09/07 12:32:51;;;;;;;1.20;0.85;;;18.60;46.40;;;;;;5072771;28;20662;-59
2021/09/07 12:35:38;;;;;;;2.08;1.00;;;18.60;46.50;;;;;;5072989;28;20249;-57
2021/09/07 12:38:11;;;;;;;2.22;1.10;;;18.50;46.40;;;;;;5072635;28;20230;-60
2021/09/07 12:40:42;;;;;;;1.08;0.90;;;18.50;46.40;;;;;;5073130;28;20250;-61
2021/09/07 12:43:13;;;;;;;2.00;1.02;;;18.50;46.50;;;;;;5072865;28;20191;-55
2021/09/07 12:45:43;;;;;;;2.60;1.05;;;18.50;46.50;;;;;;5072997;28;20199;-60
2021/09/07 12:48:14;;;;;;;1.15;0.80;;;18.50;46.60;;;;;;5072858;28;20203;-60
2021/09/07 12:50:44;;;;;;;2.38;1.00;;;18.50;46.60;;;;;;5073148;28;20660;-55
2021/09/07 12:53:20;;;;;;;1.88;0.90;;;18.50;46.60;;;;;;5073104;28;20241;-58
2021/09/07 12:55:51;;;;;;;1.52;0.93;;;18.40;46.60;;;;;;5072855;28;20213;-54
2021/09/07 12:58:21;;;;;;;3.45;1.17;;;18.40;46.60;;;;;;5072088;28;20237;-56
2021/09/07 13:00:51;;;;;;;1.15;0.70;;;18.40;46.60;;;;;;5072807;28;20300;-57
2021/09/07 13:03:22;;;;;;;1.33;0.77;;;18.40;46.60;;;;;;5072820;28;20237;-61
2021/09/07 13:05:52;;;;;;;1.73;1.00;;;18.40;46.70;;;;;;5072772;28;20198;-61
2021/09/07 13:08:25;;;;;;;1.00;0.70;;;18.40;46.70;;;;;;5073124;28;20253;-49
2021/09/07 13:10:55;;;;;;;1.98;1.15;;;18.30;46.80;;;;;;5072226;28;20262;-56
2021/09/07 13:13:26;;;;;;;1.48;0.95;;;18.30;46.70;;;;;;5072724;28;20284;-61
2021/09/07 13:15:58;;;;;;;2.20;0.85;;;18.30;46.70;;;;;;5072899;28;20622;-57